Time;durP1;ratioP1;P1;durP2;ratioP2;P2;SDS_P1;SDS_P2;PMS_P1;PMS_P2;Temp;Humidity;BMP_temperature;BMP_pressure;BME280_temperature;BME280_humidity;BME280_pressure;Samples;Min_cycle;Max_cycle;Signal;HPM_P1;HPM_P2
2022/10/05 00:01:47;;;;;;;17.08;9.77;;;;;;;8.97;72.63;99326.34;5083681;28;20480;-81
2022/10/05 00:04:18;;;;;;;17.75;9.50;;;;;;;8.92;72.12;99319.75;5083481;28;20081;-81
2022/10/05 00:06:49;;;;;;;16.67;9.02;;;;;;;8.88;72.12;99307.69;5083628;28;20051;-81
2022/10/05 00:09:19;;;;;;;18.02;9.18;;;;;;;8.87;71.71;99310.72;5082748;28;20048;-82
2022/10/05 00:11:46;;;;;;;16.27;9.75;;;;;;;8.87;71.88;99318.91;5083820;28;20051;-81
2022/10/05 00:14:26;;;;;;;18.20;9.68;;;;;;;8.83;71.82;99313.13;5083719;28;20031;-81
2022/10/05 00:16:53;;;;;;;16.25;9.65;;;;;;;8.82;72.32;99303.28;5080717;28;20454;-80
2022/10/05 00:19:31;;;;;;;18.73;9.50;;;;;;;8.77;71.56;99298.59;5074667;28;20373;-81
2022/10/05 00:22:10;;;;;;;18.30;9.50;;;;;;;8.77;72.15;99298.59;5081203;28;20478;-80
2022/10/05 00:24:35;;;;;;;16.40;9.35;;;;;;;8.76;72.05;99299.69;5076541;28;20038;-80
2022/10/05 00:27:13;;;;;;;15.02;8.82;;;;;;;8.77;72.10;99297.75;5059470;28;20032;-80
2022/10/05 00:29:39;;;;;;;14.60;8.88;;;;;;;8.77;72.53;99293.13;5078942;28;20031;-80
2022/10/05 00:32:04;;;;;;;17.38;9.05;;;;;;;8.79;72.15;99298.31;5063662;28;20032;-80
2022/10/05 00:34:32;;;;;;;19.65;9.85;;;;;;;8.74;71.64;99292.84;5083090;28;20036;-79
2022/10/05 00:36:58;;;;;;;16.10;9.05;;;;;;;8.71;71.88;99287.91;5065167;28;20408;-79
2022/10/05 00:39:24;;;;;;;16.35;9.35;;;;;;;8.71;71.95;99285.97;5062531;28;20035;-79
2022/10/05 00:42:04;;;;;;;15.52;8.90;;;;;;;8.73;72.04;99285.72;5079709;28;20043;-80
2022/10/05 00:44:51;;;;;;;18.15;9.20;;;;;;;8.71;72.24;99282.44;5081016;28;20726;-80
2022/10/05 00:47:35;;;;;;;15.02;9.05;;;;;;;8.69;71.93;99279.94;5082321;28;20032;-80
2022/10/05 00:50:28;;;;;;;17.60;9.93;;;;;;;8.65;71.95;99273.34;5080875;28;20404;-80
2022/10/05 00:53:27;;;;;;;18.10;10.23;;;;;;;8.61;72.29;99269.50;5081631;28;20036;-79
2022/10/05 00:56:11;;;;;;;15.85;9.55;;;;;;;8.60;72.20;99252.28;5064294;28;20056;-80
2022/10/05 00:59:01;;;;;;;19.45;10.27;;;;;;;8.55;72.33;99241.31;5085728;28;20062;-79
2022/10/05 01:01:39;;;;;;;17.52;10.23;;;;;;;8.57;72.04;99241.03;5084802;28;20020;-80
2022/10/05 01:04:23;;;;;;;19.77;10.43;;;;;;;8.57;71.99;99241.88;5086202;28;20115;-79
2022/10/05 01:07:22;;;;;;;17.63;10.40;;;;;;;8.57;72.18;99239.13;5078366;28;20075;-78
2022/10/05 01:09:53;;;;;;;19.60;11.65;;;;;;;8.58;72.24;99232.59;5079477;28;20128;-78
2022/10/05 01:12:53;;;;;;;23.67;11.52;;;;;;;8.56;72.67;99237.50;5080452;28;20541;-78
2022/10/05 01:15:30;;;;;;;18.27;10.35;;;;;;;8.55;72.46;99232.31;5083565;28;20036;-78
2022/10/05 01:18:31;;;;;;;16.42;10.18;;;;;;;8.52;71.96;99222.69;5085463;28;20107;-79
2022/10/05 01:21:06;;;;;;;20.10;10.15;;;;;;;8.52;72.32;99214.50;5064159;28;20031;-78
2022/10/05 01:23:50;;;;;;;19.80;9.63;;;;;;;8.48;72.76;99213.34;5065850;28;20046;-78
2022/10/05 01:26:37;;;;;;;18.73;9.98;;;;;;;8.47;72.18;99225.38;5085769;28;20032;-78
2022/10/05 01:29:10;;;;;;;17.52;10.60;;;;;;;8.42;72.74;99219.84;5065659;28;20118;-78
2022/10/05 01:31:48;;;;;;;19.42;10.30;;;;;;;8.40;72.05;99233.81;5085262;28;20032;-77
2022/10/05 01:34:34;;;;;;;18.80;10.10;;;;;;;8.39;72.53;99228.56;5082204;28;20039;-78
2022/10/05 01:36:59;;;;;;;17.48;9.65;;;;;;;8.39;72.64;99234.88;5082115;28;20028;-78
2022/10/05 01:39:57;;;;;;;17.55;9.32;;;;;;;8.36;71.98;99235.41;5083913;28;20047;-79
2022/10/05 01:42:40;;;;;;;16.80;9.27;;;;;;;8.35;72.36;99229.09;5085576;28;20116;-78
2022/10/05 01:45:22;;;;;;;20.90;9.05;;;;;;;8.33;72.79;99227.72;5085159;28;20038;-78
2022/10/05 01:47:56;;;;;;;13.75;8.90;;;;;;;8.33;72.80;99230.47;5067258;28;20155;-78
2022/10/05 01:50:52;;;;;;;16.73;8.20;;;;;;;8.32;72.79;99221.47;5083720;28;20101;-78
2022/10/05 01:53:21;;;;;;;15.10;8.68;;;;;;;8.34;72.79;99219.28;5066438;28;20394;-78
2022/10/05 01:55:52;;;;;;;17.60;9.23;;;;;;;8.35;72.65;99225.56;5082762;28;20088;-78
2022/10/05 01:58:39;;;;;;;16.50;8.70;;;;;;;8.33;72.84;99225.84;5067243;28;20028;-79
2022/10/05 02:01:07;;;;;;;16.98;9.27;;;;;;;8.33;72.57;99217.63;5083271;28;20123;-78
2022/10/05 02:03:48;;;;;;;16.05;9.07;;;;;;;8.33;72.74;99214.06;5079057;28;20061;-78
2022/10/05 02:06:22;;;;;;;15.82;8.65;;;;;;;8.34;72.85;99212.97;5083969;28;20066;-78
2022/10/05 02:09:08;;;;;;;16.48;8.48;;;;;;;8.32;72.66;99205.06;5084708;28;20101;-78
2022/10/05 02:11:36;;;;;;;15.73;8.68;;;;;;;8.32;73.38;99206.94;5084384;28;20047;-76
2022/10/05 02:14:08;;;;;;;14.55;9.27;;;;;;;8.32;72.75;99207.78;5084370;28;20063;-76
2022/10/05 02:16:44;;;;;;;17.27;9.38;;;;;;;8.31;73.25;99202.56;5083158;28;20028;-76
2022/10/05 02:19:30;;;;;;;15.82;8.63;;;;;;;8.29;72.80;99196.53;5083625;28;20032;-75
2022/10/05 02:22:25;;;;;;;15.98;8.35;;;;;;;8.28;72.85;99194.91;5084584;28;20058;-74
2022/10/05 02:24:57;;;;;;;16.88;8.68;;;;;;;8.30;73.45;99192.72;5084846;28;20020;-75
2022/10/05 02:27:38;;;;;;;14.90;8.48;;;;;;;8.28;73.53;99193.00;5064511;28;20066;-76
2022/10/05 02:30:06;;;;;;;17.35;9.00;;;;;;;8.30;73.29;99196.28;5084346;28;20089;-76
2022/10/05 02:32:43;;;;;;;13.05;8.88;;;;;;;8.29;73.11;99193.81;5084379;28;20032;-76
2022/10/05 02:35:15;;;;;;;17.02;9.75;;;;;;;8.29;73.21;99194.66;5084210;28;20032;-76
2022/10/05 02:37:59;;;;;;;16.77;8.70;;;;;;;8.29;73.63;99196.53;5084474;28;20042;-76
2022/10/05 02:40:30;;;;;;;14.45;8.80;;;;;;;8.29;73.32;99191.91;5063487;28;20472;-76
2022/10/05 02:42:56;;;;;;;15.18;8.32;;;;;;;8.30;73.56;99200.94;5063295;28;20535;-76
2022/10/05 02:45:32;;;;;;;16.10;8.63;;;;;;;8.27;73.45;99201.44;5083365;28;20051;-76
2022/10/05 02:48:10;;;;;;;17.10;9.75;;;;;;;8.24;74.13;99193.78;5065635;28;20024;-76
2022/10/05 02:50:57;;;;;;;15.32;9.85;;;;;;;8.23;73.92;99197.59;5065036;28;20572;-76
2022/10/05 02:53:40;;;;;;;18.05;10.32;;;;;;;8.23;73.83;99213.97;5064692;28;20027;-76
2022/10/05 02:56:20;;;;;;;19.25;10.75;;;;;;;8.22;74.09;99223.28;5083072;28;20044;-76
2022/10/05 02:59:12;;;;;;;16.25;10.50;;;;;;;8.23;73.72;99212.09;5082750;28;20404;-76
2022/10/05 03:01:49;;;;;;;15.98;9.45;;;;;;;8.24;74.09;99202.81;5082306;28;20085;-76
2022/10/05 03:04:45;;;;;;;20.98;10.75;;;;;;;8.24;74.08;99208.28;5082151;28;20032;-76
2022/10/05 03:07:31;;;;;;;17.35;9.95;;;;;;;8.26;74.02;99203.38;5082872;28;20068;-76
2022/10/05 03:10:10;;;;;;;19.25;10.07;;;;;;;8.30;73.92;99220.06;5079658;28;20032;-75
2022/10/05 03:13:16;;;;;;;16.27;9.90;;;;;;;8.31;74.10;99228.00;5065373;28;20043;-76
2022/10/05 03:16:10;;;;;;;15.52;9.45;;;;;;;8.33;73.63;99242.25;5079551;28;20044;-75
2022/10/05 03:18:54;;;;;;;17.73;9.68;;;;;;;8.33;74.12;99244.97;5066180;28;20083;-77
2022/10/05 03:21:47;;;;;;;17.00;9.70;;;;;;;8.33;73.54;99253.16;5082098;28;20082;-75
2022/10/05 03:24:47;;;;;;;19.13;9.60;;;;;;;8.35;73.55;99248.25;5064971;28;20459;-76
2022/10/05 03:27:25;;;;;;;15.43;8.88;;;;;;;8.35;73.58;99245.50;5065625;28;20036;-77
2022/10/05 03:30:12;;;;;;;13.90;8.95;;;;;;;8.32;73.48;99254.25;5080794;28;20028;-77
2022/10/05 03:32:37;;;;;;;13.73;8.20;;;;;;;8.30;73.83;99252.84;5083244;28;20772;-77
2022/10/05 03:35:14;;;;;;;13.68;7.90;;;;;;;8.26;73.76;99255.28;5083118;28;20114;-77
2022/10/05 03:38:10;;;;;;;12.93;7.53;;;;;;;8.24;73.98;99254.72;5083443;28;20083;-77
2022/10/05 03:41:14;;;;;;;11.40;7.45;;;;;;;8.22;73.80;99250.59;5064560;28;20111;-77
2022/10/05 03:44:00;;;;;;;12.13;7.32;;;;;;;8.20;73.39;99248.13;5049212;28;20051;-77
2022/10/05 03:46:44;;;;;;;11.23;6.90;;;;;;;8.17;73.70;99227.59;5080292;28;20090;-76
2022/10/05 03:49:09;;;;;;;10.48;6.22;;;;;;;8.17;73.71;99238.53;5082060;28;20048;-77
2022/10/05 03:51:39;;;;;;;8.75;6.30;;;;;;;8.15;74.09;99218.03;5063931;28;20028;-77
2022/10/05 03:54:04;;;;;;;10.40;6.43;;;;;;;8.13;74.14;99209.28;5082659;28;20087;-77
2022/10/05 03:56:39;;;;;;;12.13;6.22;;;;;;;8.13;74.28;99203.81;5082903;28;20034;-77
2022/10/05 03:59:14;;;;;;;11.30;5.75;;;;;;;8.09;73.65;99203.53;5064323;28;20028;-77
2022/10/05 04:02:11;;;;;;;9.63;5.72;;;;;;;8.08;73.35;99201.03;5082264;28;20152;-77
2022/10/05 04:04:48;;;;;;;8.73;5.68;;;;;;;8.09;74.05;99189.88;5077211;28;20044;-77
2022/10/05 04:07:42;;;;;;;9.65;6.05;;;;;;;8.09;73.60;99198.06;5083127;28;20089;-76
2022/10/05 04:10:15;;;;;;;10.15;6.72;;;;;;;8.12;74.03;99196.69;5081598;28;20541;-76
2022/10/05 04:12:45;;;;;;;11.85;6.60;;;;;;;8.12;73.60;99193.97;5083289;28;20039;-77
2022/10/05 04:15:32;;;;;;;11.60;7.00;;;;;;;8.07;73.72;99193.94;5082610;28;20039;-77
2022/10/05 04:18:22;;;;;;;11.30;6.80;;;;;;;8.04;74.51;99192.56;5065615;28;20043;-76
2022/10/05 04:20:53;;;;;;;11.38;7.28;;;;;;;8.00;74.15;99203.16;5082714;28;20032;-77
2022/10/05 04:23:31;;;;;;;10.77;6.72;;;;;;;8.00;73.82;99205.09;5083084;28;20020;-77
2022/10/05 04:26:03;;;;;;;10.73;6.60;;;;;;;8.00;74.34;99211.34;5080379;28;20020;-77
2022/10/05 04:28:51;;;;;;;12.93;6.97;;;;;;;8.01;74.59;99220.38;5086434;28;20031;-76
2022/10/05 04:31:44;;;;;;;11.57;7.13;;;;;;;7.98;74.72;99223.63;5086381;28;20066;-77
2022/10/05 04:34:40;;;;;;;11.32;7.03;;;;;;;7.97;74.56;99214.59;5021644;28;20048;-77
2022/10/05 04:37:13;;;;;;;11.30;7.13;;;;;;;7.98;74.35;99223.63;5086587;28;20040;-76
2022/10/05 04:39:43;;;;;;;12.48;7.30;;;;;;;8.00;74.61;99225.00;5086333;28;20028;-77
2022/10/05 04:42:24;;;;;;;11.43;7.15;;;;;;;7.99;75.11;99223.38;5087232;28;20032;-77
2022/10/05 04:44:55;;;;;;;15.48;7.57;;;;;;;8.01;74.53;99213.00;5087243;28;20028;-77
2022/10/05 04:47:54;;;;;;;11.82;7.20;;;;;;;8.00;74.52;99208.63;5086841;28;20427;-78
2022/10/05 04:50:43;;;;;;;11.15;7.45;;;;;;;8.00;74.47;99211.34;5080747;28;20111;-76
2022/10/05 04:53:23;;;;;;;12.27;7.53;;;;;;;7.97;74.66;99209.16;5086183;28;20040;-77
2022/10/05 04:56:03;;;;;;;11.60;7.10;;;;;;;7.96;74.95;99207.50;5086392;28;20111;-77
2022/10/05 04:58:49;;;;;;;10.93;7.13;;;;;;;7.96;74.91;99204.75;5084513;28;20035;-76
2022/10/05 05:01:39;;;;;;;12.00;7.35;;;;;;;7.95;74.69;99197.66;5086197;28;20148;-77
2022/10/05 05:04:31;;;;;;;12.93;8.00;;;;;;;7.94;74.84;99197.94;5067223;28;20036;-76
2022/10/05 05:07:43;;;;;;;13.15;8.13;;;;;;;7.94;75.35;99196.03;5083971;28;20443;-76
2022/10/05 05:10:38;;;;;;;14.20;8.30;;;;;;;7.94;74.89;99196.03;5066206;28;20046;-76
2022/10/05 05:13:04;;;;;;;12.50;8.00;;;;;;;7.96;74.88;99185.66;5084836;28;20052;-77
2022/10/05 05:15:53;;;;;;;11.95;8.38;;;;;;;7.98;75.54;99204.53;5086475;28;20472;-76
2022/10/05 05:18:30;;;;;;;10.85;7.88;;;;;;;8.01;75.51;99207.53;5068419;28;20035;-77
2022/10/05 05:21:31;;;;;;;10.98;7.50;;;;;;;8.02;75.21;99206.47;5083863;28;20043;-77
2022/10/05 05:24:00;;;;;;;13.10;8.02;;;;;;;8.08;75.17;99190.94;5086119;28;20094;-77
2022/10/05 05:26:49;;;;;;;12.88;7.88;;;;;;;8.09;75.29;99191.75;5068210;28;20031;-77
2022/10/05 05:29:17;;;;;;;12.55;8.10;;;;;;;8.12;75.61;99192.06;5067453;28;20111;-77
2022/10/05 05:31:51;;;;;;;12.10;8.65;;;;;;;8.14;75.55;99200.00;5067953;28;20117;-77
2022/10/05 05:34:46;;;;;;;13.70;7.40;;;;;;;8.16;75.75;99219.69;5085464;28;20032;-77
2022/10/05 05:37:34;;;;;;;9.80;7.70;;;;;;;8.20;76.13;99218.09;5064009;28;20141;-77
2022/10/05 05:40:08;;;;;;;12.00;7.65;;;;;;;8.24;76.13;99227.41;5084690;28;20055;-78
2022/10/05 05:42:46;;;;;;;12.85;7.90;;;;;;;8.29;75.97;99227.44;5085844;28;20064;-75
2022/10/05 05:45:22;;;;;;;12.75;8.82;;;;;;;8.33;76.50;99211.34;5085684;28;20035;-76
2022/10/05 05:47:57;;;;;;;13.75;8.68;;;;;;;8.35;76.26;99206.44;5086646;28;20499;-75
2022/10/05 05:50:32;;;;;;;11.98;8.15;;;;;;;8.36;76.40;99213.53;5085031;28;20024;-75
2022/10/05 05:53:08;;;;;;;14.90;9.38;;;;;;;8.39;76.67;99210.28;5085305;28;20034;-75
2022/10/05 05:55:47;;;;;;;16.27;9.57;;;;;;;8.44;76.76;99204.00;5085465;28;20031;-75
2022/10/05 05:58:18;;;;;;;14.93;8.45;;;;;;;8.51;76.26;99207.38;5086104;28;20028;-75
2022/10/05 06:00:49;;;;;;;14.77;8.65;;;;;;;8.56;76.76;99203.88;5084133;28;20107;-75
2022/10/05 06:03:23;;;;;;;13.30;8.02;;;;;;;8.61;76.69;99204.72;5084496;28;20077;-75
2022/10/05 06:05:54;;;;;;;11.48;7.05;;;;;;;8.67;76.74;99202.00;5085773;28;20028;-75
2022/10/05 06:08:24;;;;;;;12.18;6.93;;;;;;;8.70;75.93;99212.41;5067646;28;20038;-75
2022/10/05 06:10:56;;;;;;;;;;;;;;;8.76;76.82;99203.16;5084631;28;20032;-75
2022/10/05 06:13:33;;;;;;;12.77;7.15;;;;;;;8.80;76.69;99193.31;5083780;28;19995;-75
2022/10/05 06:16:11;;;;;;;13.50;8.82;;;;;;;8.87;77.27;99204.03;5085876;28;20063;-76
2022/10/05 06:18:42;;;;;;;14.18;7.88;;;;;;;8.93;76.85;99203.78;5085323;28;20055;-75
2022/10/05 06:21:19;;;;;;;12.93;7.10;;;;;;;9.00;76.95;99203.50;5083781;28;20888;-75
2022/10/05 06:24:17;;;;;;;13.45;6.97;;;;;;;9.10;76.49;99194.53;5084531;28;20077;-75
2022/10/05 06:27:30;;;;;;;13.77;7.43;;;;;;;9.23;77.02;99195.94;5084617;28;20094;-76
2022/10/05 06:30:17;;;;;;;13.25;7.40;;;;;;;9.37;77.32;99208.00;5016928;28;20098;-76
2022/10/05 06:32:57;;;;;;;10.27;6.40;;;;;;;9.49;77.30;99205.06;5085606;28;20369;-75
2022/10/05 06:35:35;;;;;;;9.10;6.20;;;;;;;9.62;77.05;99205.59;5085009;28;20035;-75
2022/10/05 06:38:16;;;;;;;14.05;7.50;;;;;;;9.71;76.78;99203.97;5083236;28;20039;-75
2022/10/05 06:41:08;;;;;;;11.93;6.55;;;;;;;9.83;76.90;99211.94;5084050;28;20495;-75
2022/10/05 06:43:57;;;;;;;10.45;6.55;;;;;;;9.96;77.44;99219.63;5082904;28;20047;-75
2022/10/05 06:46:30;;;;;;;13.17;7.13;;;;;;;10.10;76.03;99216.34;5062902;28;20448;-75
2022/10/05 06:49:04;;;;;;;9.95;6.82;;;;;;;10.21;76.81;99212.47;5082224;28;20298;-75
2022/10/05 06:51:37;;;;;;;11.35;6.80;;;;;;;10.32;76.55;99221.53;5082608;28;20024;-76
2022/10/05 06:54:36;;;;;;;10.23;6.47;;;;;;;10.45;76.24;99225.66;5084261;28;20019;-75
2022/10/05 06:57:14;;;;;;;9.55;5.30;;;;;;;10.59;75.95;99217.69;5065142;28;20373;-76
2022/10/05 06:59:58;;;;;;;10.60;6.75;;;;;;;10.71;76.25;99215.47;5083060;28;20037;-75
2022/10/05 07:02:38;;;;;;;8.85;5.50;;;;;;;10.82;75.30;99209.91;5084734;28;20024;-76
2022/10/05 07:05:27;;;;;;;8.02;5.20;;;;;;;10.94;75.34;99209.63;5065679;28;20032;-76
2022/10/05 07:08:27;;;;;;;9.47;5.20;;;;;;;11.06;75.03;99210.09;5080993;28;20032;-75
2022/10/05 07:11:03;;;;;;;8.48;5.00;;;;;;;11.16;74.93;99210.06;4974378;28;20278;-75
2022/10/05 07:13:50;;;;;;;9.63;5.63;;;;;;;11.23;74.53;99209.75;5009635;28;20036;-75
2022/10/05 07:16:34;;;;;;;7.13;5.63;;;;;;;11.30;74.35;99218.50;5084509;28;20032;-76
2022/10/05 07:19:09;;;;;;;11.27;5.40;;;;;;;11.36;74.17;99207.50;5064681;28;20032;-76
2022/10/05 07:22:17;;;;;;;8.10;5.45;;;;;;;11.42;74.18;99214.63;5082556;28;20028;-76
2022/10/05 07:24:56;;;;;;;10.90;5.50;;;;;;;11.47;73.62;99217.34;5084521;28;20708;-76
2022/10/05 07:27:26;;;;;;;12.07;6.00;;;;;;;11.49;73.32;99217.03;5084539;28;20020;-76
2022/10/05 07:29:58;;;;;;;12.23;4.57;;;;;;;11.51;73.11;99225.81;5080524;28;20024;-75
2022/10/05 07:32:35;;;;;;;7.47;4.68;;;;;;;11.50;73.13;99213.19;5083963;28;20077;-76
2022/10/05 07:38:38;;;;;;;7.05;4.57;;;;;;;11.52;72.49;99206.31;5036025;28;20479;-76
2022/10/05 07:41:08;;;;;;;8.15;4.68;;;;;;;11.55;73.08;99204.91;5080590;28;20154;-76
2022/10/05 07:43:53;;;;;;;11.50;4.45;;;;;;;11.60;72.29;99204.88;5064985;28;20032;-76
2022/10/05 07:46:25;;;;;;;6.53;4.13;;;;;;;11.67;72.65;99204.56;5084519;28;20040;-76
2022/10/05 07:49:02;;;;;;;8.13;4.55;;;;;;;11.73;72.60;99207.00;5084147;28;20028;-76
2022/10/05 07:51:30;;;;;;;6.38;4.03;;;;;;;11.81;72.60;99202.00;5060563;28;20032;-75
2022/10/05 07:54:20;;;;;;;5.75;3.85;;;;;;;11.89;72.91;99204.97;5076709;28;20040;-74
2022/10/05 07:56:52;;;;;;;;;;;;;;;12.02;72.10;99213.72;5070992;28;20035;-75
2022/10/05 07:59:40;;;;;;;5.30;4.00;;;;;;;12.12;71.94;99208.09;5072713;28;20411;-75
2022/10/05 08:02:19;;;;;;;8.40;4.60;;;;;;;12.20;70.57;99220.44;5063235;28;20094;-74
2022/10/05 08:04:55;;;;;;;7.28;4.22;;;;;;;12.24;70.55;99204.16;5058692;28;20144;-75
2022/10/05 08:07:20;;;;;;;6.18;3.97;;;;;;;12.28;70.45;99216.22;5079942;28;20663;-75
2022/10/05 08:10:04;;;;;;;6.13;4.03;;;;;;;12.35;70.75;99222.22;5078636;28;20046;-76
2022/10/05 08:12:32;;;;;;;8.48;3.78;;;;;;;12.47;70.17;99228.13;5080313;28;20115;-77
2022/10/05 08:15:17;;;;;;;6.47;3.92;;;;;;;12.58;69.89;99228.03;5080720;28;20036;-77
2022/10/05 08:17:59;;;;;;;5.43;4.10;;;;;;;12.67;70.39;99226.31;5080031;28;20108;-77
2022/10/05 08:20:31;;;;;;;7.22;3.65;;;;;;;12.77;69.76;99230.88;5073987;28;20049;-78
2022/10/05 08:23:03;;;;;;;5.85;3.45;;;;;;;12.88;69.30;99240.66;5078860;28;20078;-76
2022/10/05 08:25:35;;;;;;;4.43;2.88;;;;;;;12.99;68.94;99237.81;5078616;28;20070;-75
2022/10/05 08:28:15;;;;;;;4.53;3.28;;;;;;;13.10;69.28;99229.13;5078801;28;20047;-76
2022/10/05 08:31:10;;;;;;;;;;;;;;;13.20;69.02;99222.66;5078149;28;20032;-77
2022/10/05 08:34:07;;;;;;;7.72;3.50;;;;;;;13.28;67.60;99234.94;5064216;28;19983;-75
2022/10/05 08:37:16;;;;;;;6.22;3.28;;;;;;;13.37;66.48;99237.88;5078026;28;20061;-74
2022/10/05 08:40:16;;;;;;;5.18;2.75;;;;;;;13.46;67.70;99233.34;5077006;28;20036;-75
2022/10/05 08:42:59;;;;;;;5.57;2.70;;;;;;;13.59;67.48;99236.50;5076606;28;20716;-76
2022/10/05 08:45:34;;;;;;;6.65;2.72;;;;;;;13.70;66.12;99238.81;5081151;28;20169;-75
2022/10/05 08:48:23;;;;;;;3.97;2.55;;;;;;;13.79;65.90;99246.41;5077750;28;20029;-75
2022/10/05 08:51:28;;;;;;;6.55;2.53;;;;;;;13.87;66.16;99239.41;5078893;28;20093;-75
2022/10/05 08:54:08;;;;;;;4.78;2.83;;;;;;;13.96;65.35;99235.69;5081165;28;20119;-78
2022/10/05 08:56:33;;;;;;;4.38;2.53;;;;;;;14.06;65.82;99231.13;5080171;28;20067;-75
2022/10/05 08:59:10;;;;;;;5.32;2.70;;;;;;;14.13;65.14;99239.81;5076080;28;20444;-76
2022/10/05 09:01:48;;;;;;;3.72;2.47;;;;;;;14.20;64.73;99237.50;5080160;28;20028;-76
2022/10/05 09:04:51;;;;;;;5.22;2.60;;;;;;;14.25;64.25;99231.09;5077566;28;20111;-78
2022/10/05 09:07:16;;;;;;;4.07;2.72;;;;;;;14.28;64.15;99223.03;5082800;28;20093;-78
2022/10/05 09:09:44;;;;;;;3.35;2.10;;;;;;;14.31;64.24;99221.59;5077738;28;20044;-77
2022/10/05 09:12:28;;;;;;;3.50;2.35;;;;;;;14.37;64.66;99222.34;5082615;28;20044;-78
2022/10/05 09:15:21;;;;;;;5.93;2.38;;;;;;;14.43;63.09;99230.22;5080702;28;20074;-78
2022/10/05 09:18:07;;;;;;;7.32;2.67;;;;;;;14.49;63.07;99228.16;5087018;28;20991;-79
2022/10/05 09:20:51;;;;;;;4.03;2.13;;;;;;;14.55;63.56;99221.44;5084253;28;20032;-78
2022/10/05 09:23:34;;;;;;;3.95;2.10;;;;;;;14.64;63.02;99218.81;5085908;28;20920;-79
2022/10/05 09:26:28;;;;;;;3.60;2.55;;;;;;;14.71;63.78;99221.19;5083375;28;20024;-78
2022/10/05 09:29:15;;;;;;;4.10;2.38;;;;;;;14.78;62.81;99212.50;5086543;28;20392;-76
2022/10/05 09:32:08;;;;;;;3.72;2.50;;;;;;;14.84;62.79;99220.41;5086216;28;20035;-75
2022/10/05 09:35:05;;;;;;;5.88;2.10;;;;;;;14.92;63.59;99215.25;5084404;28;20039;-76
2022/10/05 09:37:56;;;;;;;6.40;2.28;;;;;;;14.97;61.99;99227.03;5056404;28;20377;-75
2022/10/05 09:40:40;;;;;;;4.97;2.13;;;;;;;15.03;63.26;99217.53;5082223;28;20043;-77
2022/10/05 09:43:49;;;;;;;4.60;2.30;;;;;;;15.08;62.30;99224.88;5084486;28;20092;-77
2022/10/05 09:46:40;;;;;;;5.37;2.60;;;;;;;15.18;62.04;99232.97;5083415;28;20462;-76
2022/10/05 09:49:37;;;;;;;3.65;2.13;;;;;;;15.27;62.99;99232.25;5083605;28;20517;-77
2022/10/05 09:52:17;;;;;;;5.43;2.47;;;;;;;15.38;62.51;99227.31;5078631;28;20089;-77
2022/10/05 09:55:07;;;;;;;8.38;2.60;;;;;;;15.47;62.26;99236.53;5081238;28;20039;-75
2022/10/05 09:57:58;;;;;;;3.47;2.10;;;;;;;15.49;60.71;99220.41;5083693;28;20024;-75
2022/10/05 10:00:52;;;;;;;5.68;2.33;;;;;;;15.53;61.29;99229.75;5079372;28;20088;-75
2022/10/05 10:03:42;;;;;;;2.60;1.77;;;;;;;15.61;61.61;99217.94;5085899;28;20036;-75
2022/10/05 10:06:34;;;;;;;5.00;2.17;;;;;;;15.64;59.70;99219.28;5068163;28;20040;-76
2022/10/05 10:09:30;;;;;;;4.63;2.10;;;;;;;15.66;60.07;99222.56;5082738;28;20486;-76
2022/10/05 10:12:10;;;;;;;4.97;2.20;;;;;;;15.71;61.22;99227.94;5081758;28;20040;-75
2022/10/05 10:14:44;;;;;;;3.35;2.05;;;;;;;15.81;61.59;99229.69;5066525;28;20430;-75
2022/10/05 10:17:51;;;;;;;4.75;2.00;;;;;;;15.89;61.61;99237.28;5084895;28;20393;-75
2022/10/05 10:20:42;;;;;;;7.65;2.80;;;;;;;15.99;60.98;99238.97;4962458;28;20597;-75
2022/10/05 10:23:29;;;;;;;6.30;2.40;;;;;;;16.06;60.71;99253.19;5084837;28;20039;-75
2022/10/05 10:26:10;;;;;;;5.05;2.58;;;;;;;16.20;60.42;99238.47;5085023;28;20039;-76
2022/10/05 10:29:33;;;;;;;4.18;2.50;;;;;;;16.25;60.23;99243.06;5084083;28;20036;-76
2022/10/05 10:32:18;;;;;;;6.57;2.72;;;;;;;16.23;57.39;99232.28;5005625;28;20065;-76
2022/10/05 10:35:03;;;;;;;3.85;2.10;;;;;;;16.17;58.39;99226.09;4993136;28;20616;-76
2022/10/05 10:37:34;;;;;;;4.63;2.55;;;;;;;16.18;58.41;99232.41;5065560;28;20032;-76
2022/10/05 10:40:33;;;;;;;4.85;2.70;;;;;;;16.19;58.71;99231.28;5079533;28;20046;-75
2022/10/05 10:43:25;;;;;;;5.20;2.35;;;;;;;16.22;59.03;99230.66;5078040;28;20025;-77
2022/10/05 10:45:54;;;;;;;4.03;2.30;;;;;;;16.24;57.80;99214.56;5080138;28;20058;-76
2022/10/05 10:49:01;;;;;;;6.35;2.60;;;;;;;16.25;57.69;99229.22;5077812;28;20032;-77
2022/10/05 10:51:55;;;;;;;3.75;2.15;;;;;;;16.28;58.13;99218.34;5079947;28;20109;-77
2022/10/05 10:54:26;;;;;;;4.55;2.42;;;;;;;16.29;57.32;99228.28;5063587;28;20096;-77
2022/10/05 10:57:10;;;;;;;3.40;2.22;;;;;;;16.32;58.07;99211.03;5083608;28;20172;-77
2022/10/05 10:59:52;;;;;;;4.55;2.50;;;;;;;16.39;58.68;99215.31;5080369;28;20111;-79
2022/10/05 11:02:56;;;;;;;3.97;2.10;;;;;;;16.52;58.36;99223.53;5083628;28;20054;-79
2022/10/05 11:05:22;;;;;;;4.93;2.50;;;;;;;16.62;58.23;99224.41;5047655;28;20028;-78
2022/10/05 11:08:16;;;;;;;4.82;2.55;;;;;;;16.70;58.57;99225.56;5083811;28;20027;-77
2022/10/05 11:10:55;;;;;;;3.15;2.35;;;;;;;16.77;57.81;99223.97;5058649;28;20078;-76
2022/10/05 11:14:01;;;;;;;4.38;2.70;;;;;;;16.78;56.40;99217.28;5061505;28;20093;-74
2022/10/05 11:16:57;;;;;;;3.33;2.30;;;;;;;16.76;57.29;99219.56;5079479;28;20051;-77
2022/10/05 11:19:44;;;;;;;3.70;2.50;;;;;;;16.81;58.00;99213.06;5077211;28;20064;-75
2022/10/05 11:22:29;;;;;;;4.88;2.47;;;;;;;16.88;58.11;99202.34;5077881;28;20531;-75
2022/10/05 11:25:16;;;;;;;3.38;2.15;;;;;;;16.95;57.83;99210.19;5062301;28;20153;-75
2022/10/05 11:27:44;;;;;;;3.05;2.20;;;;;;;16.98;57.88;99208.75;5079866;28;20028;-77
2022/10/05 11:30:25;;;;;;;3.88;2.33;;;;;;;17.03;57.80;99203.91;5076224;28;20032;-74
2022/10/05 11:33:28;;;;;;;4.78;2.10;;;;;;;17.06;56.69;99207.97;5062319;28;20563;-74
2022/10/05 11:36:02;;;;;;;3.30;2.00;;;;;;;17.08;55.43;99191.84;5080370;28;20130;-74
2022/10/05 11:38:41;;;;;;;3.63;1.90;;;;;;;17.08;55.81;99197.38;5079412;28;20514;-74
2022/10/05 11:41:12;;;;;;;3.33;1.98;;;;;;;17.07;54.08;99199.34;5059967;28;20047;-73
2022/10/05 11:43:59;;;;;;;4.80;2.17;;;;;;;17.06;54.73;99203.25;5080106;28;20110;-76
2022/10/05 11:46:53;;;;;;;3.63;2.35;;;;;;;17.08;54.61;99209.31;5081298;28;20048;-75
2022/10/05 11:49:44;;;;;;;3.78;2.20;;;;;;;17.12;55.02;99195.59;5076787;28;20044;-76
2022/10/05 11:52:37;;;;;;;3.38;1.77;;;;;;;17.16;54.59;99198.53;5081749;28;20039;-76
2022/10/05 11:55:21;;;;;;;4.68;2.10;;;;;;;17.21;54.91;99192.84;5077073;28;20044;-78
2022/10/05 11:57:57;;;;;;;2.85;1.70;;;;;;;17.23;54.43;99196.13;5079142;28;20031;-76
2022/10/05 12:00:41;;;;;;;12.60;3.05;;;;;;;17.29;55.08;99205.13;5077085;28;20021;-77
2022/10/05 12:03:29;;;;;;;4.15;1.88;;;;;;;17.35;54.51;99195.47;5079685;28;20131;-81
2022/10/05 12:06:07;;;;;;;3.92;1.90;;;;;;;17.37;54.24;99195.97;5076626;28;20488;-80
2022/10/05 12:08:52;;;;;;;3.22;1.65;;;;;;;17.35;52.56;99179.66;5062847;28;20401;-79
2022/10/05 12:11:30;;;;;;;3.78;1.95;;;;;;;17.31;53.46;99180.66;5081076;28;20070;-81
2022/10/05 12:14:14;;;;;;;3.38;1.80;;;;;;;17.28;52.68;99179.31;5079438;28;21418;-77
2022/10/05 12:16:58;;;;;;;3.00;1.70;;;;;;;17.26;53.85;99181.59;5081897;28;20044;-78
2022/10/05 12:19:33;;;;;;;4.97;2.65;;;;;;;17.24;53.65;99173.63;5078799;28;20366;-78
2022/10/05 12:22:16;;;;;;;3.38;1.77;;;;;;;17.24;53.04;99172.78;5059979;28;20036;-77
2022/10/05 12:25:04;;;;;;;2.30;1.83;;;;;;;17.23;53.19;99176.72;5075551;28;20042;-76
2022/10/05 12:27:39;;;;;;;3.47;1.80;;;;;;;17.21;52.00;99167.91;5079020;28;20049;-78
2022/10/05 12:30:12;;;;;;;3.92;1.75;;;;;;;17.18;53.02;99174.91;5077640;28;20106;-79
2022/10/05 12:33:15;;;;;;;4.72;2.22;;;;;;;17.20;52.27;99177.34;5077293;28;20039;-79
2022/10/05 12:35:47;;;;;;;3.60;1.85;;;;;;;17.20;52.66;99164.31;5077089;28;20143;-80
2022/10/05 12:38:31;;;;;;;5.13;1.83;;;;;;;17.20;53.15;99161.56;5082860;28;20036;-80
2022/10/05 12:41:15;;;;;;;3.58;2.13;;;;;;;17.22;53.07;99156.50;5076907;28;20575;-84
2022/10/05 12:43:58;;;;;;;4.50;2.10;;;;;;;17.26;53.59;99154.72;5082346;28;20082;-82
2022/10/05 12:46:38;;;;;;;9.43;3.42;;;;;;;17.30;53.49;99151.31;5082813;28;20070;-82
2022/10/05 12:49:25;;;;;;;5.57;2.60;;;;;;;17.33;52.37;99142.31;5064629;28;20028;-80